Time;durP1;ratioP1;P1;durP2;ratioP2;P2;SDS_P1;SDS_P2;PMS_P1;PMS_P2;Temp;Humidity;BMP_temperature;BMP_pressure;BME280_temperature;BME280_humidity;BME280_pressure;Samples;Min_cycle;Max_cycle;Signal;HPM_P1;HPM_P2
2023/08/04 00:03:58;;;;;;;;;;;;;;;18.64;63.95;99055.09;10369814;28;1981;-70
2023/08/04 00:14:09;;;;;;;;;;;;;;;18.65;63.91;99074.41;10368905;28;610;-70
2023/08/04 00:19:11;;;;;;;;;;;;;;;18.65;63.82;99080.53;10369112;28;982;-71
2023/08/04 00:29:46;;;;;;;;;;;;;;;18.62;63.83;99073.63;10201883;28;1095;-70
2023/08/04 00:34:55;;;;;;;;;;;;;;;18.63;63.75;99085.06;10201901;28;953;-70
2023/08/04 00:45:08;;;;;;;;;;;;;;;18.62;63.85;99086.84;10353470;28;1906;-70
2023/08/04 01:01:04;;;;;;;;;;;;;;;18.61;63.82;99093.06;10353936;28;1955;-70
2023/08/04 01:11:17;;;;;;;;;;;;;;;18.61;63.93;99105.41;10367604;28;614;-70
2023/08/04 01:21:32;;;;;;;;;;;;;;;18.59;63.87;99105.50;10366093;28;1893;-70
2023/08/04 01:31:42;;;;;;;;;;;;;;;18.59;63.80;99116.06;10366912;28;653;-70
2023/08/04 01:36:38;;;;;;;;;;;;;;;18.59;63.71;99115.22;10365302;28;1181;-70
2023/08/04 01:52:29;;;;;;;;;;;;;;;18.58;63.87;99132.84;10199321;28;1403;-70
2023/08/04 02:02:53;;;;;;;;;;;;;;;18.58;63.97;99138.13;10343096;28;1906;-70
2023/08/04 02:13:06;;;;;;;;;;;;;;;18.57;63.90;99125.84;10365753;28;669;-70
2023/08/04 02:28:50;;;;;;;;;;;;;;;18.56;63.90;99131.22;10366756;28;1073;-70
2023/08/04 02:39:12;;;;;;;;;;;;;;;18.55;63.78;99135.66;10372350;28;769;-70
2023/08/04 03:00:02;;;;;;;;;;;;;;;18.53;63.89;99150.72;10372068;28;590;-70
2023/08/04 03:10:20;;;;;;;;;;;;;;;18.52;63.88;99156.94;10372204;28;637;-70
2023/08/04 03:31:03;;;;;;;;;;;;;;;18.51;63.93;99178.13;10273917;28;1457;-70
2023/08/04 03:41:20;;;;;;;;;;;;;;;18.50;63.85;99185.22;10354656;28;1909;-70
2023/08/04 03:46:25;;;;;;;;;;;;;;;18.50;63.91;99182.56;10367869;28;1413;-70
2023/08/04 03:56:52;;;;;;;;;;;;;;;18.48;63.75;99184.44;10370271;28;598;-70
2023/08/04 04:07:03;;;;;;;;;;;;;;;18.49;63.74;99201.13;10369326;28;621;-70
2023/08/04 04:17:19;;;;;;;;;;;;;;;18.48;63.68;99205.53;10368734;28;1337;-70
2023/08/04 04:33:07;;;;;;;;;;;;;;;18.48;63.71;99209.97;10368714;28;1172;-70
2023/08/04 04:43:36;;;;;;;;;;;;;;;18.46;63.93;99223.25;10367733;28;1897;-70
2023/08/04 04:53:56;;;;;;;;;;;;;;;18.46;63.76;99230.31;10367974;28;665;-69
2023/08/04 05:04:24;;;;;;;;;;;;;;;18.47;63.84;99238.16;10366964;28;1914;-69
2023/08/04 05:09:20;;;;;;;;;;;;;;;18.47;63.71;99243.44;10314120;28;1361;-69
2023/08/04 05:19:30;;;;;;;;;;;;;;;18.48;63.80;99245.13;10366423;28;662;-71
2023/08/04 05:24:30;;;;;;;;;;;;;;;18.46;63.74;99244.34;10365238;28;1901;-69
2023/08/04 05:29:43;;;;;;;;;;;;;;;18.47;64.05;99255.75;10365442;28;1007;-70
2023/08/04 05:34:39;;;;;;;;;;;;;;;18.48;63.93;99258.31;10365596;28;1489;-70
2023/08/04 05:39:44;;;;;;;;;;;;;;;18.46;63.83;99259.34;10366148;28;766;-70
2023/08/04 05:45:09;;;;;;;;;;;;;;;18.46;63.95;99260.19;10365569;28;1971;-70
2023/08/04 05:55:34;;;;;;;;;;;;;;;18.45;63.96;99269.06;10363304;28;1443;-70
2023/08/04 06:00:42;;;;;;;;;;;;;;;18.45;63.94;99271.69;10364826;28;1914;-71
2023/08/04 06:05:42;;;;;;;;;;;;;;;18.44;63.99;99269.97;10365779;28;1131;-70
2023/08/04 06:16:09;;;;;;;;;;;;;;;18.44;63.95;99280.53;10370517;28;1458;-70
2023/08/04 06:21:08;;;;;;;;;;;;;;;18.45;64.23;99291.97;10374296;28;1961;-70
2023/08/04 06:26:08;;;;;;;;;;;;;;;18.45;63.90;99295.44;10371137;28;1653;-70
2023/08/04 06:31:14;;;;;;;;;;;;;;;18.45;63.98;99297.22;10373019;28;842;-70
2023/08/04 06:36:22;;;;;;;;;;;;;;;18.44;64.15;99309.56;10373384;28;1430;-70
2023/08/04 06:41:21;;;;;;;;;;;;;;;18.44;64.12;99320.09;10373121;28;1963;-70
2023/08/04 06:46:20;;;;;;;;;;;;;;;18.42;64.17;99311.44;10372326;28;949;-69
2023/08/04 06:51:35;;;;;;;;;;;;;;;18.44;63.95;99313.97;10372861;28;1335;-69
2023/08/04 07:01:56;;;;;;;;;;;;;;;18.44;64.07;99330.66;10358597;28;1922;-70
2023/08/04 07:07:01;;;;;;;;;;;;;;;18.45;64.04;99342.09;10371326;28;968;-70
2023/08/04 07:11:57;;;;;;;;;;;;;;;18.46;64.25;99349.06;10372492;28;866;-70
2023/08/04 07:17:02;;;;;;;;;;;;;;;18.45;64.48;99353.50;10370518;28;814;-70
2023/08/04 07:22:10;;;;;;;;;;;;;;;18.46;64.56;99352.56;10371612;28;1906;-70
2023/08/04 07:27:15;;;;;;;;;;;;;;;18.47;64.66;99350.75;10371166;28;1057;-70
2023/08/04 07:32:23;;;;;;;;;;;;;;;18.45;64.64;99350.84;10371156;28;1073;-71
2023/08/04 07:42:34;;;;;;;;;;;;;;;18.45;64.69;99356.13;10370326;28;1882;-68
2023/08/04 07:47:33;;;;;;;;;;;;;;;18.46;64.56;99362.25;10369737;28;1324;-68
2023/08/04 07:52:29;;;;;;;;;;;;;;;18.44;64.55;99364.97;10370554;28;1131;-70
2023/08/04 07:57:25;;;;;;;;;;;;;;;18.45;64.69;99363.22;10369968;28;1137;-70
2023/08/04 08:02:21;;;;;;;;;;;;;;;18.43;64.70;99371.19;10369173;28;1910;-70
2023/08/04 08:07:27;;;;;;;;;;;;;;;18.42;64.64;99372.13;10371781;28;1522;-70
2023/08/04 08:12:26;;;;;;;;;;;;;;;18.42;64.64;99374.78;10368997;28;1363;-70
2023/08/04 08:17:21;;;;;;;;;;;;;;;18.40;64.59;99369.56;10369994;28;862;-70
2023/08/04 08:22:17;;;;;;;;;;;;;;;18.40;64.58;99376.63;10369327;28;1897;-70
2023/08/04 08:27:19;;;;;;;;;;;;;;;18.39;64.55;99381.06;10350262;28;1247;-70
2023/08/04 08:32:24;;;;;;;;;;;;;;;18.38;64.48;99381.97;10369118;28;854;-70
2023/08/04 08:37:20;;;;;;;;;;;;;;;18.39;64.59;99385.47;10368839;28;1262;-70
2023/08/04 08:42:16;;;;;;;;;;;;;;;18.38;64.48;99381.13;10332795;28;1898;-70
2023/08/04 08:47:16;;;;;;;;;;;;;;;18.38;64.47;99383.75;10367402;28;1182;-70
2023/08/04 08:52:11;;;;;;;;;;;;;;;18.38;64.47;99378.50;10354385;28;1541;-70
2023/08/04 08:57:14;;;;;;;;;;;;;;;18.37;64.39;99390.84;10366860;28;1329;-70
2023/08/04 09:02:18;;;;;;;;;;;;;;;18.38;64.22;99394.31;10367280;28;1979;-70
2023/08/04 09:07:30;;;;;;;;;;;;;;;18.37;64.50;99396.13;10367991;28;1341;-70
2023/08/04 09:12:27;;;;;;;;;;;;;;;18.39;64.37;99409.22;10367148;28;1220;-70
2023/08/04 09:17:44;;;;;;;;;;;;;;;18.37;64.52;99405.81;10366474;28;1663;-70
2023/08/04 09:22:50;;;;;;;;;;;;;;;18.35;64.31;99403.25;10364317;28;1898;-70
2023/08/04 09:27:49;;;;;;;;;;;;;;;18.36;64.22;99414.66;10366693;28;1341;-70
2023/08/04 09:32:52;;;;;;;;;;;;;;;18.36;64.29;99412.00;10364199;28;1095;-71
2023/08/04 09:37:51;;;;;;;;;;;;;;;18.35;64.23;99426.16;10367162;28;840;-67
2023/08/04 09:42:50;;;;;;;;;;;;;;;18.34;64.39;99420.03;10366292;28;1893;-67
2023/08/04 09:47:48;;;;;;;;;;;;;;;18.39;64.05;99423.28;10365936;28;1334;-68
2023/08/04 09:52:45;;;;;;;;;;;;;;;18.43;64.06;99415.22;10366246;28;854;-68
2023/08/04 09:57:41;;;;;;;;;;;;;;;18.46;64.18;99422.97;10365613;28;1035;-67
2023/08/04 10:02:37;;;;;;;;;;;;;;;18.46;64.40;99421.16;10366326;28;2344;-68
2023/08/04 10:07:40;;;;;;;;;;;;;;;18.50;64.32;99419.25;10365615;28;1400;-68
2023/08/04 10:12:37;;;;;;;;;;;;;;;18.51;64.31;99426.22;10365907;28;882;-67
2023/08/04 10:22:48;;;;;;;;;;;;;;;18.53;64.24;99424.34;10365979;28;1966;-68
2023/08/04 10:27:44;;;;;;;;;;;;;;;18.53;64.17;99425.22;10365133;28;944;-67
2023/08/04 10:32:39;;;;;;;;;;;;;;;18.52;64.18;99431.44;10364792;28;1277;-68
2023/08/04 10:37:35;;;;;;;;;;;;;;;18.53;64.01;99430.47;10364409;28;2131;-67
2023/08/04 10:42:38;;;;;;;;;;;;;;;18.55;63.97;99426.00;10364896;28;1918;-67
2023/08/04 10:47:47;;;;;;;;;;;;;;;18.53;64.00;99425.22;10364537;28;1177;-68
2023/08/04 10:52:52;;;;;;;;;;;;;;;18.55;63.90;99428.63;10368499;28;886;-67
2023/08/04 10:57:57;;;;;;;;;;;;;;;18.56;64.01;99430.31;10371492;28;1423;-68
2023/08/04 11:02:56;;;;;;;;;;;;;;;18.61;63.68;99438.84;10372000;28;1906;-67
2023/08/04 11:07:55;;;;;;;;;;;;;;;18.64;63.69;99432.56;10372283;28;866;-67
2023/08/04 11:12:51;;;;;;;;;;;;;;;18.61;63.56;99433.59;10372609;28;807;-67
2023/08/04 11:17:50;;;;;;;;;;;;;;;18.60;63.89;99436.28;10372190;28;1535;-70
2023/08/04 11:22:46;;;;;;;;;;;;;;;18.61;63.66;99435.38;10371485;28;1889;-67
2023/08/04 11:27:45;;;;;;;;;;;;;;;18.62;63.59;99445.84;10370874;28;1036;-67
2023/08/04 11:32:44;;;;;;;;;;;;;;;18.64;63.61;99437.00;10370693;28;941;-67
2023/08/04 11:37:40;;;;;;;;;;;;;;;18.62;63.64;99435.28;10370977;28;783;-67
2023/08/04 11:42:36;;;;;;;;;;;;;;;18.66;63.53;99435.13;10371399;28;1955;-67
2023/08/04 11:47:35;;;;;;;;;;;;;;;18.66;63.71;99443.91;10371460;28;855;-67
2023/08/04 11:52:31;;;;;;;;;;;;;;;18.69;63.48;99446.38;10370259;28;1240;-67
2023/08/04 11:57:26;;;;;;;;;;;;;;;18.68;63.64;99438.53;10370254;28;782;-67
2023/08/04 12:02:26;;;;;;;;;;;;;;;18.67;63.60;99439.47;10369638;28;1910;-67
2023/08/04 12:07:22;;;;;;;;;;;;;;;18.66;63.69;99451.81;10368199;28;1381;-66
2023/08/04 12:12:21;;;;;;;;;;;;;;;18.71;63.42;99444.53;10370262;28;890;-67
2023/08/04 12:17:24;;;;;;;;;;;;;;;18.70;63.48;99442.81;10368892;28;945;-67
2023/08/04 12:22:26;;;;;;;;;;;;;;;18.75;63.42;99447.88;10368810;28;1933;-66
2023/08/04 12:27:35;;;;;;;;;;;;;;;18.79;63.21;99442.38;10368879;28;1240;-71
2023/08/04 12:32:31;;;;;;;;;;;;;;;18.75;63.46;99456.66;10368823;28;843;-72
2023/08/04 12:37:37;;;;;;;;;;;;;;;18.81;63.48;99450.19;10369335;28;906;-71
2023/08/04 12:42:39;;;;;;;;;;;;;;;18.81;63.52;99456.34;10369184;28;1886;-72
2023/08/04 12:47:37;;;;;;;;;;;;;;;18.76;64.09;99442.53;10367604;28;937;-71
2023/08/04 12:52:35;;;;;;;;;;;;;;;18.77;63.91;99446.88;10366717;28;1105;-72
2023/08/04 12:57:44;;;;;;;;;;;;;;;18.82;63.82;99447.47;10367625;28;1749;-71
2023/08/04 13:02:43;;;;;;;;;;;;;;;18.83;63.94;99450.97;10366708;28;1906;-71
2023/08/04 13:07:39;;;;;;;;;;;;;;;18.80;64.10;99445.84;10365733;28;1587;-71
2023/08/04 13:12:36;;;;;;;;;;;;;;;18.76;63.98;99447.81;10367301;28;783;-72
2023/08/04 13:17:33;;;;;;;;;;;;;;;18.74;64.09;99452.28;10366749;28;944;-70
2023/08/04 13:22:31;;;;;;;;;;;;;;;18.78;63.86;99458.28;10367437;28;1894;-71
2023/08/04 13:27:30;;;;;;;;;;;;;;;18.84;63.62;99457.97;10367293;28;835;-71
2023/08/04 13:32:26;;;;;;;;;;;;;;;18.85;63.65;99446.47;10366541;28;908;-71
2023/08/04 13:37:23;;;;;;;;;;;;;;;18.84;63.70;99452.69;10367120;28;851;-70
2023/08/04 13:42:26;;;;;;;;;;;;;;;18.90;63.55;99460.28;10365556;28;1890;-71
2023/08/04 13:47:36;;;;;;;;;;;;;;;18.92;63.46;99462.88;10366138;28;830;-71
2023/08/04 13:52:35;;;;;;;;;;;;;;;18.94;63.33;99458.31;10367189;28;1396;-72
2023/08/04 13:57:47;;;;;;;;;;;;;;;19.00;63.07;99461.50;10365770;28;1308;-71
2023/08/04 14:02:46;;;;;;;;;;;;;;;19.07;63.01;99464.66;10365874;28;1963;-71
2023/08/04 14:07:49;;;;;;;;;;;;;;;19.11;62.84;99457.44;10366097;28;950;-71
2023/08/04 14:12:45;;;;;;;;;;;;;;;19.18;62.58;99464.13;10365208;28;1409;-71
2023/08/04 14:17:47;;;;;;;;;;;;;;;19.23;62.48;99473.50;10366438;28;898;-71
2023/08/04 14:22:46;;;;;;;;;;;;;;;19.07;62.97;99466.47;10365700;28;1943;-71
2023/08/04 14:27:47;;;;;;;;;;;;;;;19.13;62.97;99463.50;10368700;28;981;-70
2023/08/04 14:32:43;;;;;;;;;;;;;;;19.26;62.75;99464.56;10374225;28;803;-71
2023/08/04 14:37:48;;;;;;;;;;;;;;;19.15;63.11;99475.72;10373679;28;1370;-71
2023/08/04 14:42:53;;;;;;;;;;;;;;;19.32;63.02;99477.44;10373258;28;1890;-71
2023/08/04 14:47:54;;;;;;;;;;;;;;;19.46;62.61;99485.47;10373677;28;850;-71
2023/08/04 14:52:56;;;;;;;;;;;;;;;19.56;62.30;99484.97;10372928;28;850;-71
2023/08/04 14:58:03;;;;;;;;;;;;;;;19.65;62.00;99492.41;10372612;28;1045;-71
2023/08/04 15:03:02;;;;;;;;;;;;;;;19.49;62.50;99495.88;10371931;28;1914;-71
2023/08/04 15:08:01;;;;;;;;;;;;;;;19.32;63.14;99495.94;10372321;28;771;-70
2023/08/04 15:13:02;;;;;;;;;;;;;;;19.19;63.29;99508.94;10372102;28;1462;-71
2023/08/04 15:17:58;;;;;;;;;;;;;;;19.22;63.20;99508.78;10371722;28;822;-72
2023/08/04 15:22:54;;;;;;;;;;;;;;;19.31;62.97;99517.16;10370736;28;1964;-70
2023/08/04 15:27:50;;;;;;;;;;;;;;;19.26;63.01;99515.63;10372603;28;1174;-71
2023/08/04 15:38:02;;;;;;;;;;;;;;;19.07;63.38;99520.16;10370206;28;625;-71
2023/08/04 15:43:05;;;;;;;;;;;;;;;19.02;63.42;99528.34;10371284;28;1955;-71
2023/08/04 15:48:08;;;;;;;;;;;;;;;19.00;63.61;99526.69;10370586;28;1259;-71
2023/08/04 15:53:20;;;;;;;;;;;;;;;18.98;63.62;99529.41;10370895;28;1338;-71
2023/08/04 15:58:15;;;;;;;;;;;;;;;18.98;63.55;99531.19;10371499;28;897;-71
2023/08/04 16:03:11;;;;;;;;;;;;;;;18.97;63.46;99527.72;10370150;28;1981;-71
2023/08/04 16:08:07;;;;;;;;;;;;;;;18.98;63.68;99518.00;10368908;28;1250;-71
2023/08/04 16:13:06;;;;;;;;;;;;;;;18.99;63.49;99528.50;10369579;28;1297;-71
2023/08/04 16:18:11;;;;;;;;;;;;;;;18.99;63.38;99525.84;10370050;28;859;-70
2023/08/04 16:23:07;;;;;;;;;;;;;;;19.00;63.28;99530.19;10369278;28;1885;-71
2023/08/04 16:28:09;;;;;;;;;;;;;;;19.01;63.32;99541.59;10369855;28;1350;-71
2023/08/04 16:33:05;;;;;;;;;;;;;;;18.99;63.49;99533.78;10368944;28;913;-71
2023/08/04 16:38:08;;;;;;;;;;;;;;;18.98;63.28;99533.84;10362805;28;954;-71
2023/08/04 16:43:04;;;;;;;;;;;;;;;18.97;63.38;99533.00;10369141;28;1893;-71
2023/08/04 16:48:01;;;;;;;;;;;;;;;18.96;63.40;99536.56;10368460;28;949;-71
2023/08/04 16:53:06;;;;;;;;;;;;;;;18.94;63.38;99546.38;10366640;28;1458;-71
2023/08/04 16:58:10;;;;;;;;;;;;;;;18.93;63.49;99546.44;10365452;28;1528;-71
2023/08/04 17:03:11;;;;;;;;;;;;;;;18.92;63.28;99553.50;10368085;28;1902;-71
2023/08/04 17:08:09;;;;;;;;;;;;;;;18.92;63.38;99558.78;10366366;28;1218;-71
2023/08/04 17:13:08;;;;;;;;;;;;;;;18.94;63.26;99566.63;10366771;28;1075;-71
2023/08/04 17:18:08;;;;;;;;;;;;;;;18.94;63.36;99570.13;10367215;28;870;-71
2023/08/04 17:23:10;;;;;;;;;;;;;;;18.92;63.43;99573.78;10363914;28;1947;-71
2023/08/04 17:28:15;;;;;;;;;;;;;;;18.91;63.52;99578.19;10367440;28;861;-71
2023/08/04 17:33:15;;;;;;;;;;;;;;;18.91;63.37;99587.91;10364360;28;1019;-71
2023/08/04 17:38:23;;;;;;;;;;;;;;;18.89;63.32;99585.34;10366649;28;1300;-71
2023/08/04 17:43:22;;;;;;;;;;;;;;;18.90;63.44;99597.63;10366378;28;1889;-71
2023/08/04 17:48:18;;;;;;;;;;;;;;;18.89;63.39;99606.50;10366101;28;1268;-71
2023/08/04 17:53:18;;;;;;;;;;;;;;;18.89;63.52;99605.59;10365653;28;1534;-71
2023/08/04 17:58:20;;;;;;;;;;;;;;;18.89;63.50;99621.44;10366200;28;795;-71
2023/08/04 18:03:29;;;;;;;;;;;;;;;18.88;63.56;99625.03;10371217;28;1906;-71
2023/08/04 18:08:30;;;;;;;;;;;;;;;18.88;63.41;99631.16;10374592;28;1320;-71
2023/08/04 18:13:26;;;;;;;;;;;;;;;18.88;63.33;99633.81;10374257;28;1402;-71
2023/08/04 18:18:28;;;;;;;;;;;;;;;18.90;63.47;99642.50;10374959;28;953;-71
2023/08/04 18:23:31;;;;;;;;;;;;;;;18.89;63.37;99640.81;10374621;28;1910;-69
2023/08/04 18:28:37;;;;;;;;;;;;;;;18.89;63.59;99648.75;10373345;28;1352;-68
2023/08/04 18:33:44;;;;;;;;;;;;;;;18.88;63.53;99652.28;10372428;28;1516;-69
2023/08/04 18:38:40;;;;;;;;;;;;;;;18.87;63.60;99653.25;10373685;28;1258;-69
2023/08/04 18:49:00;;;;;;;;;;;;;;;18.85;63.52;99667.44;10372908;28;1359;-70
2023/08/04 18:54:15;;;;;;;;;;;;;;;18.86;63.85;99670.00;10372362;28;1275;-70
2023/08/04 18:59:11;;;;;;;;;;;;;;;18.86;63.92;99675.28;10373324;28;794;-70
2023/08/04 19:04:07;;;;;;;;;;;;;;;18.85;63.91;99680.66;10371595;28;1909;-70
2023/08/04 19:09:12;;;;;;;;;;;;;;;18.83;63.77;99678.91;10371749;28;928;-70
2023/08/04 19:14:11;;;;;;;;;;;;;;;18.83;63.87;99678.91;10372442;28;1329;-70
2023/08/04 19:19:10;;;;;;;;;;;;;;;18.84;63.83;99693.00;10371779;28;1323;-70
2023/08/04 19:24:13;;;;;;;;;;;;;;;18.82;64.03;99682.50;10370756;28;1890;-70
2023/08/04 19:29:09;;;;;;;;;;;;;;;18.82;63.94;99695.72;10371433;28;1264;-69
2023/08/04 19:39:49;;;;;;;;;;;;;;;18.82;64.02;99702.78;10368110;28;1421;-70
2023/08/04 19:44:44;;;;;;;;;;;;;;;18.82;63.89;99695.72;10366824;28;1893;-70
2023/08/04 19:49:44;;;;;;;;;;;;;;;18.82;63.93;99694.84;10371187;28;1436;-70
2023/08/04 19:54:43;;;;;;;;;;;;;;;18.82;63.92;99700.13;10370420;28;1213;-70
2023/08/04 19:59:45;;;;;;;;;;;;;;;18.82;64.08;99697.50;10370971;28;784;-70
2023/08/04 20:04:44;;;;;;;;;;;;;;;18.82;63.84;99692.22;10369680;28;1906;-70
2023/08/04 20:09:51;;;;;;;;;;;;;;;18.81;64.02;99701.06;10370410;28;1453;-70
2023/08/04 20:20:19;;;;;;;;;;;;;;;18.80;64.00;99702.84;10306957;28;1234;-70
2023/08/04 20:25:27;;;;;;;;;;;;;;;18.81;63.94;99707.22;10368573;28;1957;-70
2023/08/04 20:30:26;;;;;;;;;;;;;;;18.81;64.10;99712.50;10367348;28;1068;-70
2023/08/04 20:35:26;;;;;;;;;;;;;;;18.81;63.98;99712.50;10369530;28;821;-71
2023/08/04 20:40:25;;;;;;;;;;;;;;;18.80;63.89;99717.84;10368732;28;811;-70
2023/08/04 20:50:38;;;;;;;;;;;;;;;18.81;63.92;99724.81;10368210;28;1513;-70
2023/08/04 20:55:34;;;;;;;;;;;;;;;18.80;63.91;99717.84;10368317;28;895;-70
2023/08/04 21:00:36;;;;;;;;;;;;;;;18.80;64.00;99729.25;10367931;28;1704;-70
2023/08/04 21:05:39;;;;;;;;;;;;;;;18.80;63.91;99731.88;10367653;28;1962;-71
2023/08/04 21:15:58;;;;;;;;;;;;;;;18.80;63.89;99746.88;10365024;28;1427;-70
2023/08/04 21:21:06;;;;;;;;;;;;;;;18.80;63.89;99749.53;10367435;28;801;-70
2023/08/04 21:31:29;;;;;;;;;;;;;;;18.80;63.83;99762.72;10346555;28;1689;-70
2023/08/04 21:36:30;;;;;;;;;;;;;;;18.79;63.76;99774.22;10366507;28;901;-70
2023/08/04 21:41:33;;;;;;;;;;;;;;;18.80;63.77;99778.56;10366904;28;1890;-70
2023/08/04 21:46:39;;;;;;;;;;;;;;;18.80;63.84;99778.56;10347089;28;1402;-70
2023/08/04 21:51:38;;;;;;;;;;;;;;;18.79;63.98;99777.72;10366101;28;1258;-70
2023/08/04 21:56:36;;;;;;;;;;;;;;;18.79;63.83;99790.94;10366716;28;1205;-70
2023/08/04 22:01:36;;;;;;;;;;;;;;;18.79;63.93;99792.72;10365984;28;1910;-70
2023/08/04 22:06:39;;;;;;;;;;;;;;;18.79;63.90;99788.28;10364737;28;1359;-67
2023/08/04 22:11:44;;;;;;;;;;;;;;;18.81;63.92;99785.56;10365934;28;1213;-73
2023/08/04 22:16:46;;;;;;;;;;;;;;;18.81;63.77;99788.19;10365331;28;945;-73
2023/08/04 22:21:49;;;;;;;;;;;;;;;18.80;63.77;99789.13;10365616;28;1897;-73
2023/08/04 22:26:45;;;;;;;;;;;;;;;18.78;63.75;99785.69;10365305;28;1259;-73
2023/08/04 22:32:02;;;;;;;;;;;;;;;18.78;63.70;99793.63;10365708;28;864;-73
2023/08/04 22:37:04;;;;;;;;;;;;;;;18.78;63.72;99790.97;10364684;28;1339;-73
2023/08/04 22:42:10;;;;;;;;;;;;;;;18.78;63.70;99788.34;10366349;28;1874;-74
2023/08/04 22:47:05;;;;;;;;;;;;;;;18.78;63.57;99783.91;10365175;28;929;-74
2023/08/04 22:52:02;;;;;;;;;;;;;;;18.77;63.44;99774.28;10370790;28;1414;-74
2023/08/04 22:57:10;;;;;;;;;;;;;;;18.78;63.70;99783.06;10372540;28;1332;-74
2023/08/04 23:02:07;;;;;;;;;;;;;;;18.77;63.54;99787.50;10371991;28;1965;-73
2023/08/04 23:07:09;;;;;;;;;;;;;;;18.78;63.55;99793.63;10372433;28;926;-73
2023/08/04 23:12:12;;;;;;;;;;;;;;;18.77;63.62;99790.13;10371449;28;1322;-73
2023/08/04 23:17:11;;;;;;;;;;;;;;;18.77;63.62;99786.66;10372451;28;929;-73
2023/08/04 23:22:17;;;;;;;;;;;;;;;18.77;63.58;99774.28;10371185;28;1897;-74
2023/08/04 23:27:13;;;;;;;;;;;;;;;18.76;63.42;99763.81;10372276;28;1244;-73
2023/08/04 23:32:17;;;;;;;;;;;;;;;18.77;63.37;99760.25;10371925;28;1230;-73
2023/08/04 23:37:32;;;;;;;;;;;;;;;18.77;63.44;99760.25;10371273;28;1249;-73
2023/08/04 23:42:28;;;;;;;;;;;;;;;18.76;63.44;99753.25;10371083;28;1947;-73
2023/08/04 23:47:36;;;;;;;;;;;;;;;18.76;63.31;99747.97;10370826;28;1200;-73
2023/08/04 23:52:41;;;;;;;;;;;;;;;18.76;63.44;99748.81;10368570;28;1453;-73
2023/08/04 23:57:53;;;;;;;;;;;;;;;18.76;63.40;99745.34;10369924;28;898;-73
